KAUG/AUG METAR and TAF weather

Enter ICAO airport designator
Station Type Date Time Source
KAUG METAR 2019/04/26 03:53 UTC NOAA

KAUG 260353Z AUTO 21005KT 10SM CLR 04/03 A3001 RMK AO2 SLP164 T00390033


Station Type Date Time Source
KAUG Decoded METAR 2019/04/26 03:53 UTC NOAA

AUGUSTA STATE AIRPORT, ME, United States (KAUG) 44-19N 069-48W 109M
Apr 25, 2019 - 11:53 PM EDT / 2019.04.26 0353 UTC
Wind: from the SSW (210 degrees) at 6 MPH (5 KT):0
Visibility: 10 mile(s):0
Sky conditions: clear
Temperature: 39.0 F (3.9 C)
Dew Point: 37.9 F (3.3 C)
Relative Humidity: 95%
Pressure (altimeter): 30.01 in. Hg (1016 hPa)
ob: KAUG 260353Z AUTO 21005KT 10SM CLR 04/03 A3001 RMK AO2 SLP164 T00390033
cycle: 4

Station Type Date Time Source
KAUG TAF 2019/04/25 18:42 UTC NOAA

TAF KAUG 251739Z 2518/2618 30007KT P6SM BKN040
FM252200 VRB04KT P6SM BKN110
FM261400 14005KT P6SM OVC050
FM261600 14006KT 4SM -RA OVC025

Example: see airport list